sensor_id;sensor_type;location;lat;lon;timestamp;pressure;altitude;pressure_sealevel;temperature;humidity
50859;BME280;36826;47.514;19.056;2023-08-06T00:00:20;98749.31;;;37.51;32.72
50859;BME280;36826;47.514;19.056;2023-08-06T00:02:46;98751.38;;;38.35;31.52
50859;BME280;36826;47.514;19.056;2023-08-06T00:05:11;98754.88;;;38.04;31.85
50859;BME280;36826;47.514;19.056;2023-08-06T00:07:37;98752.63;;;38.10;31.81
50859;BME280;36826;47.514;19.056;2023-08-06T00:10:02;98757.44;;;38.25;31.61
50859;BME280;36826;47.514;19.056;2023-08-06T00:12:28;98765.81;;;38.09;32.47
50859;BME280;36826;47.514;19.056;2023-08-06T00:14:53;98761.97;;;37.60;33.10
50859;BME280;36826;47.514;19.056;2023-08-06T00:17:19;98770.75;;;37.87;32.79
50859;BME280;36826;47.514;19.056;2023-08-06T00:19:44;98769.78;;;38.36;31.81
50859;BME280;36826;47.514;19.056;2023-08-06T00:22:10;98772.03;;;38.91;31.00
50859;BME280;36826;47.514;19.056;2023-08-06T00:24:35;98768.75;;;38.00;32.57
50859;BME280;36826;47.514;19.056;2023-08-06T00:27:02;98774.94;;;37.94;32.76
50859;BME280;36826;47.514;19.056;2023-08-06T00:29:27;98774.91;;;38.06;32.61
50859;BME280;36826;47.514;19.056;2023-08-06T00:31:52;98773.44;;;38.25;32.40
50859;BME280;36826;47.514;19.056;2023-08-06T00:34:18;98769.88;;;37.58;32.93
50859;BME280;36826;47.514;19.056;2023-08-06T00:36:43;98766.78;;;38.01;32.42
50859;BME280;36826;47.514;19.056;2023-08-06T00:39:09;98759.34;;;37.80;32.97
50859;BME280;36826;47.514;19.056;2023-08-06T00:41:34;98747.19;;;38.29;32.16
50859;BME280;36826;47.514;19.056;2023-08-06T00:44:00;98726.06;;;38.16;32.27
50859;BME280;36826;47.514;19.056;2023-08-06T00:46:26;98716.41;;;38.58;32.19
50859;BME280;36826;47.514;19.056;2023-08-06T00:48:52;98721.66;;;37.74;33.08
50859;BME280;36826;47.514;19.056;2023-08-06T00:51:17;98721.66;;;37.74;33.15
50859;BME280;36826;47.514;19.056;2023-08-06T00:53:44;98725.78;;;37.64;33.75
50859;BME280;36826;47.514;19.056;2023-08-06T00:56:10;98713.59;;;37.85;32.95
50859;BME280;36826;47.514;19.056;2023-08-06T00:58:35;98710.28;;;37.67;33.71
50859;BME280;36826;47.514;19.056;2023-08-06T01:01:02;98711.53;;;37.04;34.76
50859;BME280;36826;47.514;19.056;2023-08-06T01:03:27;98706.84;;;37.33;33.72
50859;BME280;36826;47.514;19.056;2023-08-06T01:05:53;98700.56;;;36.86;34.18
50859;BME280;36826;47.514;19.056;2023-08-06T01:11:27;98709.47;;;38.51;32.04
50859;BME280;36826;47.514;19.056;2023-08-06T01:14:04;98706.69;;;38.23;32.62
50859;BME280;36826;47.514;19.056;2023-08-06T01:16:32;98696.75;;;37.40;34.33
50859;BME280;36826;47.514;19.056;2023-08-06T01:18:58;98699.88;;;36.77;34.28
50859;BME280;36826;47.514;19.056;2023-08-06T01:21:24;98687.78;;;36.60;34.55
50859;BME280;36826;47.514;19.056;2023-08-06T01:23:49;98685.75;;;36.94;34.09
50859;BME280;36826;47.514;19.056;2023-08-06T01:26:39;98685.59;;;37.69;32.92
50859;BME280;36826;47.514;19.056;2023-08-06T01:29:15;98680.63;;;37.62;32.81
50859;BME280;36826;47.514;19.056;2023-08-06T01:31:44;98681.13;;;37.80;33.16
50859;BME280;36826;47.514;19.056;2023-08-06T01:34:21;98682.44;;;37.42;32.70
50859;BME280;36826;47.514;19.056;2023-08-06T01:36:47;98683.38;;;36.47;34.48
50859;BME280;36826;47.514;19.056;2023-08-06T01:39:13;98676.88;;;36.67;33.86
50859;BME280;36826;47.514;19.056;2023-08-06T01:41:39;98677.34;;;36.69;33.73
50859;BME280;36826;47.514;19.056;2023-08-06T01:44:04;98685.25;;;37.05;33.76
50859;BME280;36826;47.514;19.056;2023-08-06T01:46:30;98673.28;;;36.79;33.79
50859;BME280;36826;47.514;19.056;2023-08-06T01:48:55;98672.56;;;36.82;33.45
50859;BME280;36826;47.514;19.056;2023-08-06T01:51:21;98674.09;;;37.05;33.80
50859;BME280;36826;47.514;19.056;2023-08-06T01:53:46;98662.56;;;36.81;33.70
50859;BME280;36826;47.514;19.056;2023-08-06T01:56:12;98651.78;;;36.92;33.55
50859;BME280;36826;47.514;19.056;2023-08-06T01:58:37;98649.78;;;36.68;34.02
50859;BME280;36826;47.514;19.056;2023-08-06T02:01:03;98645.72;;;36.65;33.82
50859;BME280;36826;47.514;19.056;2023-08-06T02:03:28;98632.56;;;36.41;34.63
50859;BME280;36826;47.514;19.056;2023-08-06T02:05:54;98631.63;;;36.37;34.63
50859;BME280;36826;47.514;19.056;2023-08-06T02:08:19;98631.50;;;36.21;34.70
50859;BME280;36826;47.514;19.056;2023-08-06T02:10:45;98622.47;;;36.61;34.43
50859;BME280;36826;47.514;19.056;2023-08-06T02:13:11;98617.84;;;36.53;33.98
50859;BME280;36826;47.514;19.056;2023-08-06T02:15:42;98614.47;;;37.38;34.03
50859;BME280;36826;47.514;19.056;2023-08-06T02:18:08;98615.25;;;36.35;34.64
50859;BME280;36826;47.514;19.056;2023-08-06T02:20:33;98604.09;;;36.23;35.25
50859;BME280;36826;47.514;19.056;2023-08-06T02:22:59;98605.63;;;35.87;35.80
50859;BME280;36826;47.514;19.056;2023-08-06T02:25:24;98605.47;;;36.17;35.00
50859;BME280;36826;47.514;19.056;2023-08-06T02:27:50;98596.19;;;36.13;34.91
50859;BME280;36826;47.514;19.056;2023-08-06T02:30:15;98607.34;;;36.37;35.64
50859;BME280;36826;47.514;19.056;2023-08-06T02:32:41;98594.41;;;35.62;36.70
50859;BME280;36826;47.514;19.056;2023-08-06T02:35:06;98594.56;;;35.23;36.94
50859;BME280;36826;47.514;19.056;2023-08-06T02:37:35;98583.69;;;36.44;35.57
50859;BME280;36826;47.514;19.056;2023-08-06T02:40:01;98578.75;;;36.03;35.88
50859;BME280;36826;47.514;19.056;2023-08-06T02:42:27;98581.38;;;36.70;34.90
50859;BME280;36826;47.514;19.056;2023-08-06T02:44:53;98577.81;;;37.11;34.09
50859;BME280;36826;47.514;19.056;2023-08-06T02:47:21;98583.00;;;36.72;34.04
50859;BME280;36826;47.514;19.056;2023-08-06T02:49:47;98598.53;;;36.85;34.57
50859;BME280;36826;47.514;19.056;2023-08-06T02:52:12;98602.94;;;36.74;34.34
50859;BME280;36826;47.514;19.056;2023-08-06T02:54:38;98596.00;;;36.55;34.36
50859;BME280;36826;47.514;19.056;2023-08-06T02:57:05;98586.41;;;37.18;34.03
50859;BME280;36826;47.514;19.056;2023-08-06T02:59:31;98583.78;;;36.84;34.55
50859;BME280;36826;47.514;19.056;2023-08-06T03:01:57;98578.00;;;36.65;33.76
50859;BME280;36826;47.514;19.056;2023-08-06T03:04:22;98582.16;;;36.71;34.17
50859;BME280;36826;47.514;19.056;2023-08-06T03:06:51;98584.38;;;37.31;33.71
50859;BME280;36826;47.514;19.056;2023-08-06T03:09:17;98588.56;;;36.84;34.10
50859;BME280;36826;47.514;19.056;2023-08-06T03:11:42;98580.09;;;36.55;34.74
50859;BME280;36826;47.514;19.056;2023-08-06T03:14:08;98567.88;;;36.85;34.31
50859;BME280;36826;47.514;19.056;2023-08-06T03:16:34;98573.19;;;36.90;34.43
50859;BME280;36826;47.514;19.056;2023-08-06T03:19:00;98578.78;;;36.40;34.58
50859;BME280;36826;47.514;19.056;2023-08-06T03:21:25;98572.75;;;36.26;34.47
50859;BME280;36826;47.514;19.056;2023-08-06T03:23:51;98577.06;;;36.36;33.69
50859;BME280;36826;47.514;19.056;2023-08-06T03:26:16;98578.72;;;37.15;33.62
50859;BME280;36826;47.514;19.056;2023-08-06T03:28:41;98572.06;;;37.20;33.00
50859;BME280;36826;47.514;19.056;2023-08-06T03:31:07;98581.81;;;37.67;33.06
50859;BME280;36826;47.514;19.056;2023-08-06T03:33:33;98581.09;;;36.88;32.91
50859;BME280;36826;47.514;19.056;2023-08-06T03:35:58;98572.56;;;35.30;35.35
50859;BME280;36826;47.514;19.056;2023-08-06T03:38:24;98577.28;;;34.28;36.85
50859;BME280;36826;47.514;19.056;2023-08-06T03:40:49;98574.19;;;35.53;35.49
50859;BME280;36826;47.514;19.056;2023-08-06T03:43:15;98573.91;;;36.62;33.73
50859;BME280;36826;47.514;19.056;2023-08-06T03:45:41;98575.59;;;35.59;35.13
50859;BME280;36826;47.514;19.056;2023-08-06T03:48:07;98571.47;;;36.11;34.39
50859;BME280;36826;47.514;19.056;2023-08-06T03:50:33;98569.94;;;36.14;34.43
50859;BME280;36826;47.514;19.056;2023-08-06T03:52:59;98574.78;;;35.92;34.48
50859;BME280;36826;47.514;19.056;2023-08-06T03:55:24;98572.13;;;35.41;35.38
50859;BME280;36826;47.514;19.056;2023-08-06T03:57:50;98567.78;;;35.52;34.72
50859;BME280;36826;47.514;19.056;2023-08-06T04:00:15;98569.97;;;36.51;33.79
50859;BME280;36826;47.514;19.056;2023-08-06T04:02:41;98566.84;;;36.40;33.69
50859;BME280;36826;47.514;19.056;2023-08-06T04:05:07;98568.53;;;37.07;32.97
50859;BME280;36826;47.514;19.056;2023-08-06T04:07:33;98568.19;;;37.37;31.53
50859;BME280;36826;47.514;19.056;2023-08-06T04:10:00;98564.53;;;37.20;32.31
50859;BME280;36826;47.514;19.056;2023-08-06T04:12:26;98570.66;;;36.48;32.62
50859;BME280;36826;47.514;19.056;2023-08-06T04:14:52;98563.81;;;36.70;32.10
50859;BME280;36826;47.514;19.056;2023-08-06T04:17:18;98563.59;;;36.63;31.86
50859;BME280;36826;47.514;19.056;2023-08-06T04:19:51;98563.63;;;37.44;31.02
50859;BME280;36826;47.514;19.056;2023-08-06T04:22:18;98554.28;;;36.59;31.55
50859;BME280;36826;47.514;19.056;2023-08-06T04:24:44;98554.84;;;36.77;31.74
50859;BME280;36826;47.514;19.056;2023-08-06T04:27:10;98543.41;;;37.07;31.26
50859;BME280;36826;47.514;19.056;2023-08-06T04:29:36;98549.97;;;36.12;31.74
50859;BME280;36826;47.514;19.056;2023-08-06T04:32:03;98552.06;;;35.35;33.07
50859;BME280;36826;47.514;19.056;2023-08-06T04:34:29;98546.28;;;36.69;30.82
50859;BME280;36826;47.514;19.056;2023-08-06T04:36:54;98555.53;;;36.12;31.06
50859;BME280;36826;47.514;19.056;2023-08-06T04:39:20;98546.03;;;36.37;31.21
50859;BME280;36826;47.514;19.056;2023-08-06T04:41:45;98542.34;;;36.33;31.71
50859;BME280;36826;47.514;19.056;2023-08-06T04:44:10;98545.34;;;36.28;31.40
50859;BME280;36826;47.514;19.056;2023-08-06T04:46:36;98548.56;;;36.92;30.30
50859;BME280;36826;47.514;19.056;2023-08-06T04:49:01;98554.75;;;36.61;30.66
50859;BME280;36826;47.514;19.056;2023-08-06T04:51:27;98553.50;;;37.11;30.42
50859;BME280;36826;47.514;19.056;2023-08-06T04:53:52;98551.56;;;36.87;30.50
50859;BME280;36826;47.514;19.056;2023-08-06T04:56:18;98547.16;;;36.74;30.23
50859;BME280;36826;47.514;19.056;2023-08-06T04:58:43;98537.09;;;37.22;29.56
50859;BME280;36826;47.514;19.056;2023-08-06T05:01:09;98536.97;;;36.65;30.08
50859;BME280;36826;47.514;19.056;2023-08-06T05:03:34;98532.13;;;38.20;27.86
50859;BME280;36826;47.514;19.056;2023-08-06T05:06:00;98540.50;;;37.44;27.95
50859;BME280;36826;47.514;19.056;2023-08-06T05:08:25;98538.44;;;37.57;28.25
50859;BME280;36826;47.514;19.056;2023-08-06T05:10:51;98527.56;;;37.68;28.66
50859;BME280;36826;47.514;19.056;2023-08-06T05:13:16;98524.25;;;37.34;28.61
50859;BME280;36826;47.514;19.056;2023-08-06T05:15:42;98519.09;;;37.48;28.53
50859;BME280;36826;47.514;19.056;2023-08-06T05:18:08;98521.16;;;36.69;29.30
50859;BME280;36826;47.514;19.056;2023-08-06T05:20:41;98522.03;;;38.00;27.82
50859;BME280;36826;47.514;19.056;2023-08-06T05:23:07;98526.56;;;37.03;28.39
50859;BME280;36826;47.514;19.056;2023-08-06T05:25:34;98518.69;;;36.93;28.88
50859;BME280;36826;47.514;19.056;2023-08-06T05:28:01;98527.38;;;35.67;30.29
50859;BME280;36826;47.514;19.056;2023-08-06T05:30:27;98528.63;;;36.28;29.17
50859;BME280;36826;47.514;19.056;2023-08-06T05:32:52;98527.56;;;36.58;29.00
50859;BME280;36826;47.514;19.056;2023-08-06T05:35:18;98528.34;;;35.96;29.70
50859;BME280;36826;47.514;19.056;2023-08-06T05:37:44;98518.16;;;36.50;29.37
50859;BME280;36826;47.514;19.056;2023-08-06T05:40:09;98519.00;;;36.13;29.29
50859;BME280;36826;47.514;19.056;2023-08-06T05:42:35;98516.66;;;36.65;29.08
50859;BME280;36826;47.514;19.056;2023-08-06T05:45:00;98513.31;;;37.00;28.18
50859;BME280;36826;47.514;19.056;2023-08-06T05:47:26;98503.97;;;36.67;28.60
50859;BME280;36826;47.514;19.056;2023-08-06T05:49:51;98510.03;;;37.10;28.41
50859;BME280;36826;47.514;19.056;2023-08-06T05:52:16;98515.66;;;36.85;29.04
50859;BME280;36826;47.514;19.056;2023-08-06T05:54:42;98512.56;;;36.62;29.03
50859;BME280;36826;47.514;19.056;2023-08-06T05:57:07;98509.72;;;36.87;28.82
50859;BME280;36826;47.514;19.056;2023-08-06T05:59:33;98511.97;;;37.22;28.09
50859;BME280;36826;47.514;19.056;2023-08-06T06:01:58;98507.22;;;37.39;27.53
50859;BME280;36826;47.514;19.056;2023-08-06T06:04:24;98496.44;;;36.06;29.19
50859;BME280;36826;47.514;19.056;2023-08-06T06:06:50;98502.97;;;35.98;29.45
50859;BME280;36826;47.514;19.056;2023-08-06T06:09:15;98505.63;;;36.31;28.35
50859;BME280;36826;47.514;19.056;2023-08-06T06:11:41;98506.50;;;36.97;27.80
50859;BME280;36826;47.514;19.056;2023-08-06T06:14:07;98504.81;;;36.18;28.96
50859;BME280;36826;47.514;19.056;2023-08-06T06:16:34;98509.31;;;38.02;27.09
50859;BME280;36826;47.514;19.056;2023-08-06T06:18:59;98504.75;;;37.21;27.85
50859;BME280;36826;47.514;19.056;2023-08-06T06:21:25;98511.25;;;37.54;27.32
50859;BME280;36826;47.514;19.056;2023-08-06T06:23:50;98504.97;;;37.73;26.71
50859;BME280;36826;47.514;19.056;2023-08-06T06:26:17;98503.75;;;36.73;27.94
50859;BME280;36826;47.514;19.056;2023-08-06T06:28:43;98513.47;;;37.20;27.76
50859;BME280;36826;47.514;19.056;2023-08-06T06:31:08;98517.22;;;37.40;26.83
50859;BME280;36826;47.514;19.056;2023-08-06T06:33:34;98525.06;;;37.06;27.63
50859;BME280;36826;47.514;19.056;2023-08-06T06:36:03;98533.16;;;37.68;27.10
50859;BME280;36826;47.514;19.056;2023-08-06T06:38:29;98538.69;;;36.95;27.88
50859;BME280;36826;47.514;19.056;2023-08-06T06:40:57;98549.72;;;37.60;27.38
50859;BME280;36826;47.514;19.056;2023-08-06T06:43:23;98539.09;;;36.44;28.29
50859;BME280;36826;47.514;19.056;2023-08-06T06:45:53;98553.66;;;37.31;27.79
50859;BME280;36826;47.514;19.056;2023-08-06T06:48:19;98543.91;;;36.96;27.68
50859;BME280;36826;47.514;19.056;2023-08-06T06:50:47;98541.53;;;37.84;26.48
50859;BME280;36826;47.514;19.056;2023-08-06T06:53:13;98534.47;;;37.42;27.05
50859;BME280;36826;47.514;19.056;2023-08-06T06:55:38;98530.66;;;37.79;26.64
50859;BME280;36826;47.514;19.056;2023-08-06T06:58:04;98527.44;;;37.20;26.71
50859;BME280;36826;47.514;19.056;2023-08-06T07:00:29;98534.09;;;36.62;28.20
50859;BME280;36826;47.514;19.056;2023-08-06T07:02:55;98532.84;;;36.47;28.77
50859;BME280;36826;47.514;19.056;2023-08-06T07:05:20;98511.31;;;35.98;28.33
50859;BME280;36826;47.514;19.056;2023-08-06T07:07:46;98522.56;;;34.19;31.47
50859;BME280;36826;47.514;19.056;2023-08-06T07:10:11;98530.03;;;34.28;31.08
50859;BME280;36826;47.514;19.056;2023-08-06T07:12:37;98535.47;;;35.60;29.47
50859;BME280;36826;47.514;19.056;2023-08-06T07:15:11;98542.13;;;37.17;27.83
50859;BME280;36826;47.514;19.056;2023-08-06T07:17:37;98537.41;;;36.92;27.98
50859;BME280;36826;47.514;19.056;2023-08-06T07:20:02;98559.72;;;36.05;28.73
50859;BME280;36826;47.514;19.056;2023-08-06T07:22:28;98572.16;;;35.20;29.57
50859;BME280;36826;47.514;19.056;2023-08-06T07:24:53;98576.97;;;36.57;28.09
50859;BME280;36826;47.514;19.056;2023-08-06T07:27:19;98579.53;;;35.58;29.16
50859;BME280;36826;47.514;19.056;2023-08-06T07:29:44;98581.81;;;35.43;29.59
50859;BME280;36826;47.514;19.056;2023-08-06T07:32:10;98570.81;;;35.47;29.77
50859;BME280;36826;47.514;19.056;2023-08-06T07:34:35;98568.28;;;35.33;30.05
50859;BME280;36826;47.514;19.056;2023-08-06T07:37:01;98570.53;;;36.07;28.66
50859;BME280;36826;47.514;19.056;2023-08-06T07:39:26;98570.09;;;34.86;30.52
50859;BME280;36826;47.514;19.056;2023-08-06T07:41:54;98565.59;;;35.58;29.32
50859;BME280;36826;47.514;19.056;2023-08-06T07:44:19;98562.19;;;35.73;29.41
50859;BME280;36826;47.514;19.056;2023-08-06T07:46:45;98563.84;;;35.87;28.73
50859;BME280;36826;47.514;19.056;2023-08-06T07:49:10;98560.69;;;36.72;27.72
50859;BME280;36826;47.514;19.056;2023-08-06T07:51:38;98550.88;;;37.03;26.71
50859;BME280;36826;47.514;19.056;2023-08-06T07:54:04;98563.88;;;35.99;28.08
50859;BME280;36826;47.514;19.056;2023-08-06T07:56:29;98546.72;;;36.34;28.21
50859;BME280;36826;47.514;19.056;2023-08-06T07:58:54;98550.72;;;36.58;27.50
50859;BME280;36826;47.514;19.056;2023-08-06T08:01:20;98541.06;;;36.43;27.95
50859;BME280;36826;47.514;19.056;2023-08-06T08:03:45;98544.91;;;35.80;28.61
50859;BME280;36826;47.514;19.056;2023-08-06T08:06:11;98548.78;;;35.54;28.81
50859;BME280;36826;47.514;19.056;2023-08-06T08:08:36;98542.16;;;35.46;29.23
50859;BME280;36826;47.514;19.056;2023-08-06T08:11:04;98542.28;;;35.96;28.68
50859;BME280;36826;47.514;19.056;2023-08-06T08:13:29;98549.53;;;36.72;28.06
50859;BME280;36826;47.514;19.056;2023-08-06T08:15:59;98553.19;;;37.41;26.97
50859;BME280;36826;47.514;19.056;2023-08-06T08:18:25;98559.28;;;36.16;28.11
50859;BME280;36826;47.514;19.056;2023-08-06T08:20:50;98559.75;;;36.43;28.17
50859;BME280;36826;47.514;19.056;2023-08-06T08:23:16;98554.03;;;36.89;27.54
50859;BME280;36826;47.514;19.056;2023-08-06T08:25:41;98555.47;;;37.23;27.21
50859;BME280;36826;47.514;19.056;2023-08-06T08:28:07;98575.16;;;34.93;29.72
50859;BME280;36826;47.514;19.056;2023-08-06T08:30:33;98590.59;;;36.13;29.24
50859;BME280;36826;47.514;19.056;2023-08-06T08:32:58;98585.16;;;36.41;27.89
50859;BME280;36826;47.514;19.056;2023-08-06T08:35:24;98576.69;;;36.25;27.84
50859;BME280;36826;47.514;19.056;2023-08-06T08:37:50;98578.75;;;36.90;27.03
50859;BME280;36826;47.514;19.056;2023-08-06T08:40:16;98567.88;;;36.60;27.48
50859;BME280;36826;47.514;19.056;2023-08-06T08:42:42;98565.88;;;35.65;28.33
50859;BME280;36826;47.514;19.056;2023-08-06T08:45:14;98570.25;;;35.54;28.66
50859;BME280;36826;47.514;19.056;2023-08-06T08:47:41;98574.38;;;36.27;28.18
50859;BME280;36826;47.514;19.056;2023-08-06T08:50:09;98575.06;;;36.98;27.37
50859;BME280;36826;47.514;19.056;2023-08-06T08:52:36;98584.13;;;37.65;26.21
50859;BME280;36826;47.514;19.056;2023-08-06T08:55:03;98579.94;;;36.15;27.55
50859;BME280;36826;47.514;19.056;2023-08-06T08:57:29;98585.97;;;36.17;27.86
50859;BME280;36826;47.514;19.056;2023-08-06T08:59:55;98577.72;;;36.33;27.75
50859;BME280;36826;47.514;19.056;2023-08-06T09:02:21;98570.38;;;34.94;28.94
50859;BME280;36826;47.514;19.056;2023-08-06T09:04:47;98575.50;;;36.88;27.21
50859;BME280;36826;47.514;19.056;2023-08-06T09:07:16;98566.97;;;36.68;27.04
50859;BME280;36826;47.514;19.056;2023-08-06T09:09:43;98573.06;;;36.87;26.98
50859;BME280;36826;47.514;19.056;2023-08-06T09:12:15;98557.84;;;35.63;28.12
50859;BME280;36826;47.514;19.056;2023-08-06T09:14:40;98566.56;;;34.77;29.18
50859;BME280;36826;47.514;19.056;2023-08-06T09:17:06;98547.75;;;35.59;27.72
50859;BME280;36826;47.514;19.056;2023-08-06T09:19:32;98561.97;;;37.15;26.41
50859;BME280;36826;47.514;19.056;2023-08-06T09:21:58;98560.75;;;37.85;25.89
50859;BME280;36826;47.514;19.056;2023-08-06T09:24:24;98570.75;;;37.86;25.07
50859;BME280;36826;47.514;19.056;2023-08-06T09:26:51;98583.16;;;38.49;24.75
50859;BME280;36826;47.514;19.056;2023-08-06T09:29:16;98573.88;;;38.13;24.96
50859;BME280;36826;47.514;19.056;2023-08-06T09:31:47;98579.44;;;38.29;24.79
50859;BME280;36826;47.514;19.056;2023-08-06T09:34:17;98583.31;;;38.73;24.40
50859;BME280;36826;47.514;19.056;2023-08-06T09:36:46;98599.81;;;39.13;23.81
50859;BME280;36826;47.514;19.056;2023-08-06T09:39:16;98590.94;;;38.76;24.25
50859;BME280;36826;47.514;19.056;2023-08-06T09:41:44;98601.63;;;38.06;25.08
50859;BME280;36826;47.514;19.056;2023-08-06T09:44:18;98607.78;;;37.83;25.13
50859;BME280;36826;47.514;19.056;2023-08-06T09:46:50;98593.06;;;37.99;25.03
50859;BME280;36826;47.514;19.056;2023-08-06T09:49:18;98592.91;;;37.22;26.28
50859;BME280;36826;47.514;19.056;2023-08-06T09:51:45;98597.50;;;36.28;27.17
50859;BME280;36826;47.514;19.056;2023-08-06T09:54:15;98576.44;;;34.96;28.66
50859;BME280;36826;47.514;19.056;2023-08-06T09:56:42;98586.44;;;35.73;27.83
50859;BME280;36826;47.514;19.056;2023-08-06T09:59:08;98598.78;;;35.51;27.87
50859;BME280;36826;47.514;19.056;2023-08-06T10:01:34;98606.16;;;34.44;29.50
50859;BME280;36826;47.514;19.056;2023-08-06T10:04:03;98612.78;;;35.75;27.83
50859;BME280;36826;47.514;19.056;2023-08-06T10:06:29;98611.63;;;34.62;29.06
50859;BME280;36826;47.514;19.056;2023-08-06T10:08:55;98616.53;;;34.95;28.55
50859;BME280;36826;47.514;19.056;2023-08-06T10:11:23;98621.50;;;36.07;27.17
50859;BME280;36826;47.514;19.056;2023-08-06T10:13:55;98618.34;;;36.09;27.26
50859;BME280;36826;47.514;19.056;2023-08-06T10:16:27;98626.00;;;36.00;27.10
50859;BME280;36826;47.514;19.056;2023-08-06T10:18:53;98639.22;;;36.03;26.85
50859;BME280;36826;47.514;19.056;2023-08-06T10:21:19;98628.66;;;34.04;28.80
50859;BME280;36826;47.514;19.056;2023-08-06T10:23:53;98645.22;;;34.39;28.69
50859;BME280;36826;47.514;19.056;2023-08-06T10:26:19;98638.81;;;34.00;28.98
50859;BME280;36826;47.514;19.056;2023-08-06T10:28:44;98633.78;;;33.40;30.13
50859;BME280;36826;47.514;19.056;2023-08-06T10:31:10;98635.34;;;34.89;27.72
50859;BME280;36826;47.514;19.056;2023-08-06T10:33:46;98637.84;;;36.92;25.32
50859;BME280;36826;47.514;19.056;2023-08-06T10:36:14;98645.53;;;34.46;28.11
50859;BME280;36826;47.514;19.056;2023-08-06T10:38:50;98640.47;;;35.59;27.48
50859;BME280;36826;47.514;19.056;2023-08-06T10:41:36;98649.16;;;36.25;26.50
50859;BME280;36826;47.514;19.056;2023-08-06T10:44:10;98655.41;;;36.22;26.38
50859;BME280;36826;47.514;19.056;2023-08-06T10:46:36;98659.06;;;34.56;28.15
50859;BME280;36826;47.514;19.056;2023-08-06T10:49:03;98651.88;;;34.85;27.83
50859;BME280;36826;47.514;19.056;2023-08-06T10:51:29;98655.25;;;35.30;27.19
50859;BME280;36826;47.514;19.056;2023-08-06T10:53:56;98662.56;;;36.11;26.37
50859;BME280;36826;47.514;19.056;2023-08-06T10:56:25;98659.03;;;36.35;26.31
50859;BME280;36826;47.514;19.056;2023-08-06T10:58:55;98653.03;;;36.45;26.03
50859;BME280;36826;47.514;19.056;2023-08-06T11:01:24;98656.28;;;36.47;25.75
50859;BME280;36826;47.514;19.056;2023-08-06T11:03:50;98661.69;;;34.92;27.51
50859;BME280;36826;47.514;19.056;2023-08-06T11:06:20;98651.03;;;36.33;25.87
50859;BME280;36826;47.514;19.056;2023-08-06T11:08:50;98657.53;;;35.70;26.85
50859;BME280;36826;47.514;19.056;2023-08-06T11:11:17;98667.19;;;35.94;25.89
50859;BME280;36826;47.514;19.056;2023-08-06T11:13:44;98660.28;;;34.77;27.79
50859;BME280;36826;47.514;19.056;2023-08-06T11:16:13;98659.78;;;34.75;27.80
50859;BME280;36826;47.514;19.056;2023-08-06T11:18:40;98670.19;;;35.46;27.34
50859;BME280;36826;47.514;19.056;2023-08-06T11:21:07;98671.53;;;34.33;28.40
50859;BME280;36826;47.514;19.056;2023-08-06T11:23:34;98665.94;;;35.49;27.02
50859;BME280;36826;47.514;19.056;2023-08-06T11:26:01;98665.28;;;35.22;27.37
50859;BME280;36826;47.514;19.056;2023-08-06T11:28:27;98653.81;;;33.63;29.07
50859;BME280;36826;47.514;19.056;2023-08-06T11:30:53;98658.94;;;34.44;27.67
50859;BME280;36826;47.514;19.056;2023-08-06T11:33:27;98656.03;;;35.09;27.41
50859;BME280;36826;47.514;19.056;2023-08-06T11:35:54;98641.84;;;35.66;26.46
50859;BME280;36826;47.514;19.056;2023-08-06T11:38:20;98661.03;;;34.95;27.43
50859;BME280;36826;47.514;19.056;2023-08-06T11:40:47;98651.56;;;36.73;25.30
50859;BME280;36826;47.514;19.056;2023-08-06T11:43:13;98651.88;;;36.59;25.83
50859;BME280;36826;47.514;19.056;2023-08-06T11:45:39;98661.25;;;34.81;27.73
50859;BME280;36826;47.514;19.056;2023-08-06T11:48:05;98664.84;;;35.96;26.99
50859;BME280;36826;47.514;19.056;2023-08-06T11:50:31;98661.19;;;35.83;26.29
50859;BME280;36826;47.514;19.056;2023-08-06T11:52:59;98674.91;;;35.25;27.59
50859;BME280;36826;47.514;19.056;2023-08-06T11:55:27;98683.59;;;35.23;27.71
50859;BME280;36826;47.514;19.056;2023-08-06T11:57:54;98682.09;;;35.26;27.85
50859;BME280;36826;47.514;19.056;2023-08-06T12:00:20;98672.69;;;36.15;26.53
50859;BME280;36826;47.514;19.056;2023-08-06T12:02:49;98668.78;;;34.33;28.62
50859;BME280;36826;47.514;19.056;2023-08-06T12:05:17;98678.66;;;35.71;26.53
50859;BME280;36826;47.514;19.056;2023-08-06T12:07:48;98675.06;;;33.94;28.47
50859;BME280;36826;47.514;19.056;2023-08-06T12:10:15;98681.16;;;35.85;26.54
50859;BME280;36826;47.514;19.056;2023-08-06T12:12:41;98676.31;;;36.28;25.41
50859;BME280;36826;47.514;19.056;2023-08-06T12:15:08;98684.91;;;36.23;25.62
50859;BME280;36826;47.514;19.056;2023-08-06T12:17:34;98677.56;;;36.18;26.27
50859;BME280;36826;47.514;19.056;2023-08-06T12:20:00;98687.38;;;35.18;26.92
50859;BME280;36826;47.514;19.056;2023-08-06T12:22:25;98694.38;;;35.55;26.54
50859;BME280;36826;47.514;19.056;2023-08-06T12:24:51;98702.59;;;34.35;27.56
50859;BME280;36826;47.514;19.056;2023-08-06T12:27:17;98695.81;;;36.16;25.91
50859;BME280;36826;47.514;19.056;2023-08-06T12:29:47;98711.19;;;37.71;24.31
50859;BME280;36826;47.514;19.056;2023-08-06T12:32:20;98712.59;;;36.40;25.67
50859;BME280;36826;47.514;19.056;2023-08-06T12:34:47;98696.00;;;35.56;27.12
50859;BME280;36826;47.514;19.056;2023-08-06T12:37:12;98701.22;;;33.93;29.08
50859;BME280;36826;47.514;19.056;2023-08-06T12:39:38;98706.25;;;35.64;26.68
50859;BME280;36826;47.514;19.056;2023-08-06T12:42:05;98704.59;;;35.42;26.88
50859;BME280;36826;47.514;19.056;2023-08-06T12:44:31;98713.09;;;35.67;26.96
50859;BME280;36826;47.514;19.056;2023-08-06T12:46:59;98707.69;;;34.41;28.29
50859;BME280;36826;47.514;19.056;2023-08-06T12:49:25;98713.88;;;34.30;28.30